createdAt,value
2019-04-23T00:02:28.513Z,8.67
2019-04-23T00:04:53.094Z,10.13
2019-04-23T00:10:06.568Z,13.73
2019-04-23T00:15:07.427Z,9.20
2019-04-23T00:17:37.134Z,13.63
2019-04-23T00:20:12.585Z,8.87
2019-04-23T00:22:53.359Z,11.03
2019-04-23T00:25:38.041Z,7.93
2019-04-23T00:28:06.553Z,12.23
2019-04-23T00:30:45.359Z,8.87
2019-04-23T00:33:05.829Z,9.33
2019-04-23T00:35:38.654Z,9.47
2019-04-23T00:38:11.904Z,9.57
2019-04-23T00:40:39.086Z,10.27
2019-04-23T00:43:18.187Z,8.17
2019-04-23T00:45:44.506Z,7.03
2019-04-23T00:48:25.993Z,7.47
2019-04-23T00:53:19.209Z,7.50
2019-04-23T00:55:47.626Z,13.90
2019-04-23T00:58:21.250Z,8.47
2019-04-23T01:05:55.692Z,11.60
2019-04-23T01:08:38.811Z,9.53
2019-04-23T01:13:39.382Z,9.53
2019-04-23T01:16:05.666Z,8.73
2019-04-23T01:18:50.629Z,11.47
2019-04-23T01:20:54.816Z,11.37
2019-04-23T01:23:45.622Z,13.30
2019-04-23T01:26:33.055Z,11.17
2019-04-23T01:29:07.089Z,8.07
2019-04-23T01:31:41.070Z,8.90
2019-04-23T01:34:13.058Z,10.13
2019-04-23T01:36:37.713Z,7.73
2019-04-23T01:39:11.748Z,10.20
2019-04-23T01:41:49.232Z,11.80
2019-04-23T01:44:15.203Z,10.50
2019-04-23T01:46:49.441Z,7.50
2019-04-23T01:49:26.465Z,9.43
2019-04-23T01:54:17.806Z,9.57
2019-04-23T01:56:49.456Z,6.13
2019-04-23T01:59:26.251Z,9.27
2019-04-23T02:07:06.325Z,10.17
2019-04-23T02:09:51.588Z,9.20
2019-04-23T02:11:59.197Z,6.77
2019-04-23T02:14:29.673Z,11.17
2019-04-23T02:17:07.616Z,12.00
2019-04-23T02:19:42.862Z,11.10
2019-04-23T02:22:03.980Z,8.27
2019-04-23T02:24:43.012Z,11.93
2019-04-23T02:27:11.774Z,10.80
2019-04-23T02:29:59.198Z,8.63
2019-04-23T02:32:22.137Z,9.90
2019-04-23T02:34:57.860Z,7.93
2019-04-23T02:40:01.934Z,6.80
2019-04-23T02:42:47.119Z,7.60
2019-04-23T02:44:55.855Z,7.30
2019-04-23T02:50:08.852Z,10.73
2019-04-23T02:52:30.630Z,7.00
2019-04-23T02:55:10.833Z,7.40
2019-04-23T02:57:36.891Z,7.17
2019-04-23T03:02:40.788Z,10.63
2019-04-23T03:05:08.265Z,8.90
2019-04-23T03:10:07.820Z,14.80
2019-04-23T03:15:31.956Z,15.17
2019-04-23T03:21:00.396Z,12.43
2019-04-23T03:26:04.263Z,9.53
2019-04-23T03:28:27.361Z,8.17
2019-04-23T03:38:39.463Z,12.63
2019-04-23T03:41:10.762Z,7.60
2019-04-23T03:43:38.284Z,8.50
2019-04-23T03:46:17.802Z,9.00
2019-04-23T03:51:03.144Z,10.83
2019-04-23T03:53:45.413Z,7.37
2019-04-23T04:01:16.262Z,11.93
2019-04-23T04:06:37.656Z,8.03
2019-04-23T04:08:46.607Z,8.93
2019-04-23T04:11:14.329Z,7.90
2019-04-23T04:13:53.593Z,6.93
2019-04-23T04:16:21.840Z,9.43
2019-04-23T04:21:27.624Z,10.27
2019-04-23T04:24:03.254Z,9.20
2019-04-23T04:31:34.650Z,7.40
2019-04-23T04:36:29.805Z,5.50
2019-04-23T04:41:34.352Z,11.10
2019-04-23T04:44:17.265Z,11.07
2019-04-23T04:49:08.065Z,8.23
2019-04-23T04:54:09.398Z,8.23
2019-04-23T04:56:35.977Z,7.17
2019-04-23T05:01:37.365Z,9.00
2019-04-23T05:04:18.264Z,9.90
2019-04-23T05:06:56.612Z,5.43
2019-04-23T05:09:25.227Z,7.60
2019-04-23T05:14:13.323Z,6.57
2019-04-23T05:16:44.497Z,8.90
2019-04-23T05:24:21.827Z,10.90
2019-04-23T05:26:43.057Z,6.87
2019-04-23T05:31:51.520Z,8.50
2019-04-23T05:34:23.955Z,7.80
2019-04-23T05:37:01.586Z,8.47
2019-04-23T05:39:30.931Z,6.97
2019-04-23T05:41:53.784Z,5.47
2019-04-23T05:44:31.213Z,6.90
2019-04-23T05:47:07.261Z,7.53
2019-04-23T05:49:31.889Z,8.07
2019-04-23T05:52:01.816Z,6.87
2019-04-23T05:54:45.825Z,14.20
2019-04-23T05:57:01.774Z,14.17
2019-04-23T05:59:46.895Z,7.20
2019-04-23T06:02:04.811Z,7.57
2019-04-23T06:04:36.512Z,9.60
2019-04-23T06:07:25.023Z,8.63
2019-04-23T06:09:39.281Z,5.43
2019-04-23T06:12:06.990Z,9.37
2019-04-23T06:14:47.387Z,6.97
2019-04-23T06:17:15.182Z,12.00
2019-04-23T06:19:44.292Z,9.90
2019-04-23T06:24:45.043Z,10.93
2019-04-23T06:27:22.088Z,9.63
2019-04-23T06:29:49.571Z,7.40
2019-04-23T06:32:22.938Z,9.10
2019-04-23T06:34:53.031Z,9.90
2019-04-23T06:37:27.080Z,9.07
2019-04-23T06:39:55.145Z,15.47
2019-04-23T06:42:29.574Z,5.87
2019-04-23T06:44:58.257Z,7.83
2019-04-23T06:47:27.811Z,5.50
2019-04-23T06:52:43.756Z,13.43
2019-04-23T06:55:01.603Z,7.50
2019-04-23T06:57:25.581Z,9.90
2019-04-23T07:02:37.715Z,7.60
2019-04-23T07:10:07.251Z,11.30
2019-04-23T07:15:27.660Z,10.73
2019-04-23T07:17:39.617Z,8.80
2019-04-23T07:20:15.128Z,10.70
2019-04-23T07:22:54.657Z,7.37
2019-04-23T07:25:17.621Z,11.73
2019-04-23T07:28:06.906Z,6.67
2019-04-23T07:32:52.990Z,12.37
2019-04-23T07:35:16.084Z,12.00
2019-04-23T07:38:16.314Z,9.00
2019-04-23T07:43:18.446Z,8.00
2019-04-23T07:45:57.580Z,7.47
2019-04-23T07:50:55.140Z,9.50
2019-04-23T07:53:24.626Z,8.27
2019-04-23T07:56:02.509Z,7.97
2019-04-23T07:58:23.395Z,9.00
2019-04-23T08:06:01.086Z,11.13
2019-04-23T08:11:33.296Z,5.17
2019-04-23T08:18:57.738Z,5.27
2019-04-23T08:21:19.277Z,8.37
2019-04-23T08:24:00.301Z,8.43
2019-04-23T08:29:12.816Z,10.10
2019-04-23T08:31:43.826Z,13.93
2019-04-23T08:39:18.172Z,12.37
2019-04-23T08:42:02.002Z,9.63
2019-04-23T08:44:56.418Z,7.70
2019-04-23T08:49:44.208Z,9.00
2019-04-23T08:54:48.389Z,8.70
2019-04-23T08:57:08.741Z,10.70
2019-04-23T08:59:44.025Z,9.87
2019-04-23T09:04:49.968Z,15.67
2019-04-23T09:07:16.706Z,8.73
2019-04-23T09:09:55.189Z,10.43
2019-04-23T09:14:51.127Z,11.13
2019-04-23T09:17:24.764Z,10.67
2019-04-23T09:20:09.845Z,9.97
2019-04-23T09:24:55.763Z,8.53
2019-04-23T09:27:31.774Z,11.10
2019-04-23T09:30:02.683Z,13.33
2019-04-23T09:32:25.167Z,11.97
2019-04-23T09:38:07.089Z,13.83
2019-04-23T09:43:31.229Z,11.47
2019-04-23T09:48:41.200Z,12.57
2019-04-23T09:51:10.273Z,8.43
2019-04-23T09:53:37.907Z,16.90
2019-04-23T09:56:10.243Z,11.90
2019-04-23T09:58:34.598Z,7.13
2019-04-23T10:03:46.328Z,10.97
2019-04-23T10:06:16.136Z,8.47
2019-04-23T10:08:46.446Z,11.37
2019-04-23T10:11:11.724Z,12.43
2019-04-23T10:13:42.818Z,14.40
2019-04-23T10:16:15.746Z,11.93
2019-04-23T10:18:44.911Z,7.90
2019-04-23T10:21:15.511Z,9.87
2019-04-23T10:23:45.329Z,11.07
2019-04-23T10:26:16.308Z,10.87
2019-04-23T10:28:51.913Z,8.63
2019-04-23T10:31:22.882Z,11.93
2019-04-23T10:33:52.509Z,13.37
2019-04-23T10:36:25.894Z,10.70
2019-04-23T10:39:00.509Z,11.23
2019-04-23T10:41:25.733Z,10.30
2019-04-23T10:43:58.591Z,9.20
2019-04-23T10:47:06.754Z,11.53
2019-04-23T10:50:31.763Z,12.43
2019-04-23T10:52:20.186Z,11.47
2019-04-23T10:54:57.626Z,14.60
2019-04-23T10:57:16.713Z,13.13
2019-04-23T11:02:36.970Z,8.35
2019-04-23T11:07:30.864Z,8.58
2019-04-23T11:12:42.369Z,6.72
2019-04-23T11:20:14.902Z,14.23
2019-04-23T11:25:20.408Z,9.73
2019-04-23T11:27:46.986Z,7.55
2019-04-23T11:30:29.351Z,9.00
2019-04-23T11:32:54.291Z,7.62
2019-04-23T11:35:24.064Z,12.00
2019-04-23T11:40:23.252Z,17.00
2019-04-23T11:43:09.310Z,10.88
2019-04-23T11:45:32.484Z,11.53
2019-04-23T11:50:39.680Z,17.12
2019-04-23T11:50:59.847Z,11.48
2019-04-23T11:52:56.443Z,8.73
2019-04-23T11:55:43.097Z,14.98
2019-04-23T11:58:08.397Z,12.78
2019-04-23T12:00:44.720Z,13.55
2019-04-23T12:03:17.310Z,13.72
2019-04-23T12:06:12.134Z,14.47
2019-04-23T12:11:39.567Z,10.90
2019-04-23T12:14:15.999Z,12.90
2019-04-23T12:16:47.146Z,10.00
2019-04-23T12:19:32.881Z,12.75
2019-04-23T12:21:45.394Z,15.25
2019-04-23T12:24:39.452Z,12.75
2019-04-23T12:26:53.887Z,15.10
2019-04-23T12:29:23.745Z,12.13
2019-04-23T12:32:15.053Z,12.87
2019-04-23T12:34:49.471Z,13.53
2019-04-23T12:37:15.076Z,13.65
2019-04-23T12:39:43.999Z,11.57
2019-04-23T12:42:37.751Z,17.73
2019-04-23T12:44:47.798Z,14.83
2019-04-23T12:47:25.413Z,18.25
2019-04-23T12:50:18.901Z,13.33
2019-04-23T12:52:27.781Z,14.83
2019-04-23T12:55:05.316Z,11.87
2019-04-23T12:59:54.831Z,15.73
2019-04-23T13:02:33.434Z,13.20
2019-04-23T13:04:51.750Z,21.57
2019-04-23T13:07:36.994Z,14.73
2019-04-23T13:09:58.319Z,10.37
2019-04-23T13:20:15.679Z,13.08
2019-04-23T13:22:39.827Z,11.35
2019-04-23T13:25:09.584Z,15.20
2019-04-23T13:27:57.193Z,15.80
2019-04-23T13:30:23.331Z,12.00
2019-04-23T13:32:55.467Z,16.13
2019-04-23T13:37:58.947Z,15.00
2019-04-23T13:40:24.749Z,12.03
2019-04-23T13:43:07.404Z,13.32
2019-04-23T13:45:49.778Z,15.13
2019-04-23T13:48:03.437Z,17.62
2019-04-23T13:50:37.482Z,15.08
2019-04-23T13:55:21.746Z,11.83
2019-04-23T13:58:09.109Z,17.07
2019-04-23T14:00:44.715Z,13.85
2019-04-23T14:03:05.392Z,17.32
2019-04-23T14:06:01.733Z,21.45
2019-04-23T14:08:41.321Z,11.83
2019-04-23T14:11:06.919Z,14.28
2019-04-23T14:16:04.487Z,18.07
2019-04-23T14:21:17.175Z,15.23
2019-04-23T14:23:59.198Z,11.40
2019-04-23T14:28:43.577Z,14.00
2019-04-23T14:31:10.574Z,12.73
2019-04-23T14:33:52.677Z,15.45
2019-04-23T14:36:13.965Z,18.32
2019-04-23T14:41:23.468Z,12.58
2019-04-23T14:46:36.557Z,14.47
2019-04-23T14:56:29.951Z,14.40
2019-04-23T14:59:01.651Z,12.88
2019-04-23T15:01:49.712Z,15.30
2019-04-23T15:03:55.951Z,15.68
2019-04-23T15:06:50.941Z,13.67
2019-04-23T15:09:24.232Z,16.93
2019-04-23T15:11:36.819Z,17.60
2019-04-23T15:14:01.469Z,15.07
2019-04-23T15:16:37.895Z,11.37
2019-04-23T15:19:33.993Z,17.27
2019-04-23T15:24:30.361Z,17.17
2019-04-23T15:29:09.692Z,14.43
2019-04-23T15:34:23.492Z,16.13
2019-04-23T15:37:14.507Z,15.37
2019-04-23T15:39:31.527Z,16.47
2019-04-23T15:42:22.718Z,15.45
2019-04-23T15:44:49.083Z,11.40
2019-04-23T15:47:12.055Z,14.10
2019-04-23T15:49:36.366Z,15.30
2019-04-23T15:52:14.300Z,13.07
2019-04-23T15:54:54.952Z,15.67
2019-04-23T15:57:07.153Z,11.50
2019-04-23T15:59:40.655Z,12.97
2019-04-23T16:01:44.507Z,14.90
2019-04-23T16:04:16.589Z,17.10
2019-04-23T16:06:54.095Z,15.20
2019-04-23T16:09:54.114Z,12.30
2019-04-23T16:12:22.814Z,17.83
2019-04-23T16:15:06.486Z,14.80
2019-04-23T16:17:29.035Z,13.53
2019-04-23T16:22:39.556Z,12.77
2019-04-23T16:25:13.337Z,20.05
2019-04-23T16:27:49.069Z,13.62
2019-04-23T16:38:14.129Z,14.97
2019-04-23T16:40:33.226Z,11.80
2019-04-23T16:43:03.786Z,14.60
2019-04-23T16:45:40.205Z,15.17
2019-04-23T16:48:20.252Z,13.00
2019-04-23T16:50:57.167Z,12.77
2019-04-23T16:55:47.526Z,10.43
2019-04-23T16:58:21.491Z,16.53
2019-04-23T17:00:51.514Z,14.00
2019-04-23T17:03:23.425Z,15.10
2019-04-23T17:05:50.816Z,14.23
2019-04-23T17:08:35.556Z,14.53
2019-04-23T17:10:55.465Z,14.17
2019-04-23T17:13:20.160Z,16.40
2019-04-23T17:18:25.921Z,17.00
2019-04-23T17:20:53.082Z,12.80
2019-04-23T17:23:34.443Z,13.33
2019-04-23T17:25:57.263Z,16.67
2019-04-23T17:31:18.818Z,13.30
2019-04-23T17:33:35.654Z,14.20
2019-04-23T17:36:18.506Z,10.20
2019-04-23T17:41:19.353Z,21.10
2019-04-23T17:43:59.937Z,13.20
2019-04-23T17:46:21.843Z,18.27
2019-04-23T17:48:59.537Z,13.20
2019-04-23T17:51:26.618Z,14.43
2019-04-23T17:54:06.597Z,14.17
2019-04-23T17:56:36.721Z,14.43
2019-04-23T17:59:04.314Z,14.77
2019-04-23T18:02:12.815Z,16.73
2019-04-23T18:04:10.377Z,15.00
2019-04-23T18:09:15.176Z,13.63
2019-04-23T18:11:35.769Z,16.70
2019-04-23T18:14:08.267Z,11.33
2019-04-23T18:16:46.210Z,16.73
2019-04-23T18:19:12.656Z,17.43
2019-04-23T18:22:07.416Z,17.67
2019-04-23T18:24:41.237Z,19.93
2019-04-23T18:27:21.367Z,20.47
2019-04-23T18:29:54.895Z,19.53
2019-04-23T18:32:43.456Z,18.53
2019-04-23T18:37:30.003Z,18.70
2019-04-23T18:39:54.669Z,20.57
2019-04-23T18:42:40.817Z,17.43
2019-04-23T18:45:07.162Z,13.97
2019-04-23T18:47:40.469Z,25.93
2019-04-23T18:50:02.349Z,17.80
2019-04-23T18:52:53.188Z,19.50
2019-04-23T18:55:14.550Z,16.60
2019-04-23T18:57:40.308Z,16.17
2019-04-23T19:00:36.980Z,34.77
2019-04-23T19:02:51.791Z,15.80
2019-04-23T19:08:00.978Z,14.33
2019-04-23T19:10:56.112Z,13.47
2019-04-23T19:13:24.726Z,19.03
2019-04-23T19:15:50.529Z,17.70
2019-04-23T19:18:26.150Z,14.17
2019-04-23T19:21:00.926Z,18.03
2019-04-23T19:23:32.668Z,22.97
2019-04-23T19:25:53.604Z,20.30
2019-04-23T19:28:40.890Z,30.00
2019-04-23T19:31:18.712Z,20.10
2019-04-23T19:38:35.179Z,21.27
2019-04-23T19:41:12.849Z,19.43
2019-04-23T19:43:41.813Z,22.17
2019-04-23T19:46:34.855Z,24.80
2019-04-23T19:48:54.600Z,25.77
2019-04-23T19:51:16.924Z,20.13
2019-04-23T19:54:12.833Z,19.33
2019-04-23T19:56:36.544Z,28.17
2019-04-23T20:06:48.466Z,21.43
2019-04-23T20:11:32.735Z,23.03
2019-04-23T20:13:55.489Z,23.13
2019-04-23T20:21:32.586Z,22.80
2019-04-23T20:32:06.113Z,16.03
2019-04-23T20:36:52.878Z,24.50
2019-04-23T20:42:08.693Z,34.53
2019-04-23T20:44:46.956Z,28.47
2019-04-23T20:47:11.496Z,23.50
2019-04-23T20:49:43.202Z,54.20
2019-04-23T20:52:07.188Z,29.50
2019-04-23T20:54:48.956Z,23.03
2019-04-23T20:57:43.113Z,33.97
2019-04-23T21:00:06.765Z,22.83
2019-04-23T21:05:17.895Z,16.83
2019-04-23T21:10:30.702Z,24.37
2019-04-23T21:15:30.922Z,17.30
2019-04-23T21:20:35.436Z,16.97
2019-04-23T21:23:06.186Z,19.67
2019-04-23T21:25:30.475Z,22.57
2019-04-23T21:28:11.549Z,19.77
2019-04-23T21:30:58.521Z,18.43
2019-04-23T21:33:11.669Z,18.43
2019-04-23T21:41:30.356Z,19.63
2019-04-23T21:46:30.315Z,27.10
2019-04-23T21:53:55.406Z,23.37
2019-04-23T21:59:01.484Z,21.73
2019-04-23T22:04:15.663Z,23.40
2019-04-23T22:06:43.486Z,22.57
2019-04-23T22:14:17.064Z,21.53
2019-04-23T22:19:14.962Z,19.53
2019-04-23T22:21:50.190Z,21.87
2019-04-23T22:24:10.334Z,18.83
2019-04-23T22:26:48.864Z,21.50
2019-04-23T22:37:07.934Z,21.60
2019-04-23T22:39:25.454Z,20.33
2019-04-23T22:44:42.526Z,23.53
2019-04-23T22:47:00.667Z,19.23
2019-04-23T22:49:40.649Z,18.77
2019-04-23T22:54:41.905Z,21.90
2019-04-23T22:57:20.978Z,21.70
2019-04-23T22:59:54.400Z,19.53
2019-04-23T23:02:21.541Z,25.87
2019-04-23T23:05:04.182Z,21.27
2019-04-23T23:07:24.207Z,22.33
2019-04-23T23:12:20.897Z,20.73
2019-04-23T23:14:54.830Z,19.67
2019-04-23T23:17:24.736Z,27.83
2019-04-23T23:20:08.780Z,21.07
2019-04-23T23:22:27.306Z,21.63
2019-04-23T23:25:04.682Z,20.50
2019-04-23T23:27:32.382Z,23.60
2019-04-23T23:32:30.585Z,16.93
2019-04-23T23:35:24.555Z,22.17
2019-04-23T23:37:34.599Z,22.63
2019-04-23T23:40:17.045Z,21.40
2019-04-23T23:42:45.411Z,18.37
2019-04-23T23:45:21.655Z,23.80
2019-04-23T23:47:38.126Z,18.20
2019-04-23T23:50:17.828Z,20.97
2019-04-23T23:52:48.789Z,25.43
2019-04-23T23:55:16.569Z,19.03
2019-04-23T23:57:50.271Z,21.00
